createdAt,value
2022-12-29T00:05:05.943Z,18.4
2022-12-29T00:10:08.054Z,18.4
2022-12-29T00:15:10.238Z,18.4
2022-12-29T00:20:12.476Z,18.4
2022-12-29T00:25:14.585Z,18.4
2022-12-29T00:30:16.739Z,18.4
2022-12-29T00:35:18.963Z,18.4
2022-12-29T00:40:21.159Z,18.4
2022-12-29T00:45:23.452Z,18.4
2022-12-29T00:50:25.614Z,18.4
2022-12-29T00:55:27.931Z,18.3
2022-12-29T01:00:30.113Z,18.3
2022-12-29T01:05:32.369Z,18.3
2022-12-29T01:10:34.496Z,18.3
2022-12-29T01:15:36.637Z,18.3
2022-12-29T01:20:38.809Z,18.4
2022-12-29T01:25:40.912Z,18.4
2022-12-29T01:30:43.193Z,18.4
2022-12-29T01:35:45.464Z,18.4
2022-12-29T01:40:47.651Z,18.4
2022-12-29T01:45:49.838Z,18.3
2022-12-29T01:50:51.946Z,18.3
2022-12-29T01:55:54.083Z,18.3
2022-12-29T02:00:56.341Z,18.3
2022-12-29T02:05:58.530Z,18.3
2022-12-29T02:11:01.964Z,18.3
2022-12-29T02:16:04.178Z,18.3
2022-12-29T02:21:06.302Z,18.2
2022-12-29T02:26:08.385Z,18.2
2022-12-29T02:31:10.522Z,18.2
2022-12-29T02:36:12.712Z,18.2
2022-12-29T02:41:14.810Z,18.2
2022-12-29T02:46:17.135Z,18.2
2022-12-29T02:51:19.347Z,18.1
2022-12-29T02:56:21.470Z,18.1
2022-12-29T03:01:23.701Z,18
2022-12-29T03:06:25.740Z,18
2022-12-29T03:11:27.857Z,17.9
2022-12-29T03:16:30.025Z,17.9
2022-12-29T03:21:32.149Z,17.9
2022-12-29T03:26:35.337Z,17.9
2022-12-29T03:31:37.562Z,17.9
2022-12-29T03:36:39.729Z,17.9
2022-12-29T03:41:41.842Z,17.9
2022-12-29T03:46:44.049Z,17.9
2022-12-29T03:51:46.114Z,17.9
2022-12-29T03:56:48.254Z,17.8
2022-12-29T04:01:50.677Z,17.9
2022-12-29T04:06:52.883Z,17.9
2022-12-29T04:11:55.092Z,18
2022-12-29T04:16:57.323Z,18.1
2022-12-29T04:21:59.621Z,18.1
2022-12-29T04:27:01.749Z,18.1
2022-12-29T04:32:03.896Z,18.1
2022-12-29T04:37:06.147Z,18.1
2022-12-29T04:42:08.284Z,18.1
2022-12-29T04:47:10.435Z,18.1
2022-12-29T04:52:12.614Z,18
2022-12-29T04:57:14.707Z,18
2022-12-29T05:02:16.968Z,18
2022-12-29T05:07:19.053Z,17.9
2022-12-29T05:12:21.210Z,17.9
2022-12-29T05:17:23.490Z,17.8
2022-12-29T05:22:25.849Z,17.8
2022-12-29T05:27:27.969Z,17.8
2022-12-29T05:32:30.099Z,17.9
2022-12-29T05:37:32.262Z,17.9
2022-12-29T05:42:34.376Z,17.9
2022-12-29T05:47:36.499Z,17.9
2022-12-29T05:52:38.665Z,18
2022-12-29T05:57:40.772Z,18.1
2022-12-29T06:02:43.177Z,18.2
2022-12-29T06:07:45.330Z,18.3
2022-12-29T06:12:47.536Z,18.4
2022-12-29T06:17:49.611Z,18.6
2022-12-29T06:22:51.768Z,18.7
2022-12-29T06:27:53.875Z,18.9
2022-12-29T06:32:56.018Z,19
2022-12-29T06:37:58.226Z,19.1
2022-12-29T06:43:00.396Z,19.2
2022-12-29T07:08:50.681Z,20
2022-12-29T07:13:52.797Z,20.1
2022-12-29T07:18:54.936Z,20
2022-12-29T07:23:57.102Z,20
2022-12-29T07:28:59.300Z,20
2022-12-29T07:34:01.548Z,20
2022-12-29T07:39:03.983Z,20
2022-12-29T07:44:06.096Z,20
2022-12-29T07:49:08.226Z,20
2022-12-29T07:54:10.448Z,20
2022-12-29T07:59:12.539Z,19.9
2022-12-29T08:04:14.744Z,19.9
2022-12-29T08:09:22.216Z,19.8
2022-12-29T08:14:19.061Z,19.8
2022-12-29T08:19:21.438Z,19.7
2022-12-29T08:24:23.874Z,19.7
2022-12-29T08:29:26.051Z,19.7
2022-12-29T08:34:28.335Z,19.8
2022-12-29T08:39:30.526Z,19.8
2022-12-29T08:44:32.765Z,19.8
2022-12-29T08:49:35.042Z,19.7
2022-12-29T08:54:37.247Z,19.7
2022-12-29T08:59:39.404Z,19.7
2022-12-29T09:04:41.656Z,19.6
2022-12-29T09:09:43.828Z,19.6
2022-12-29T09:14:46.027Z,19.6
2022-12-29T09:19:51.199Z,19.6
2022-12-29T09:24:53.373Z,19.6
2022-12-29T09:29:55.584Z,19.7
2022-12-29T09:34:57.870Z,19.7
2022-12-29T09:40:00.236Z,19.6
2022-12-29T09:45:02.290Z,19.5
2022-12-29T09:50:04.431Z,19.5
2022-12-29T09:55:12.109Z,19.5
2022-12-29T10:00:08.708Z,19.5
2022-12-29T10:05:10.954Z,19.5
2022-12-29T10:10:13.229Z,19.6
2022-12-29T10:15:15.457Z,19.6
2022-12-29T10:20:17.742Z,19.4
2022-12-29T10:25:19.966Z,19.2
2022-12-29T10:30:22.060Z,19
2022-12-29T10:35:24.362Z,18.9
2022-12-29T10:40:26.633Z,18.8
2022-12-29T10:45:28.622Z,18.8
2022-12-29T10:50:30.939Z,18.7
2022-12-29T10:55:33.040Z,18.8
2022-12-29T11:00:35.253Z,18.8
2022-12-29T11:05:37.312Z,18.8
2022-12-29T11:10:39.484Z,18.9
2022-12-29T11:15:41.624Z,19
2022-12-29T11:20:43.809Z,19.1
2022-12-29T11:25:46.116Z,19.3
2022-12-29T11:30:48.364Z,19.4
2022-12-29T11:35:50.538Z,19.4
2022-12-29T11:40:52.704Z,19.4
2022-12-29T11:45:54.949Z,19.4
2022-12-29T11:50:57.076Z,19.4
2022-12-29T11:55:59.276Z,19.3
2022-12-29T12:01:02.515Z,19.3
2022-12-29T12:06:04.713Z,19.3
2022-12-29T12:11:06.826Z,19.3
2022-12-29T12:16:08.996Z,19.4
2022-12-29T12:21:11.072Z,19.4
2022-12-29T12:26:13.267Z,19.4
2022-12-29T12:31:15.524Z,19.5
2022-12-29T12:36:17.682Z,19.6
2022-12-29T12:41:21.913Z,19.6
2022-12-29T12:46:22.052Z,19.7
2022-12-29T12:51:24.246Z,19.8
2022-12-29T13:06:51.513Z,19.9
2022-12-29T13:11:53.625Z,19.9
2022-12-29T13:16:55.763Z,19.9
2022-12-29T13:22:03.969Z,19.9
2022-12-29T13:27:00.049Z,20
2022-12-29T13:32:02.272Z,20
2022-12-29T13:37:04.465Z,20.1
2022-12-29T13:42:06.592Z,20.1
2022-12-29T13:47:08.740Z,20.1
2022-12-29T13:52:10.909Z,20.1
2022-12-29T13:57:13.010Z,20.1
2022-12-29T14:02:15.358Z,20.2
2022-12-29T14:07:17.442Z,20.2
2022-12-29T14:12:19.598Z,20.2
2022-12-29T14:17:22.010Z,20.2
2022-12-29T14:22:28.958Z,20.3
2022-12-29T14:27:26.483Z,20.3
2022-12-29T14:32:28.639Z,20.2
2022-12-29T14:37:30.864Z,20.2
2022-12-29T14:42:33.138Z,20.1
2022-12-29T14:47:35.437Z,20
2022-12-29T14:52:37.756Z,19.9
2022-12-29T14:57:39.978Z,19.9
2022-12-29T15:02:42.280Z,19.9
2022-12-29T15:07:44.442Z,19.8
2022-12-29T15:12:46.633Z,19.8
2022-12-29T15:17:48.929Z,19.8
2022-12-29T15:22:51.170Z,19.8
2022-12-29T15:27:53.247Z,19.8
2022-12-29T15:32:55.478Z,19.8
2022-12-29T15:37:57.657Z,19.8
2022-12-29T15:42:59.768Z,19.7
2022-12-29T15:48:01.918Z,19.6
2022-12-29T15:53:04.139Z,19.6
2022-12-29T15:58:06.187Z,19.6
2022-12-29T16:03:08.602Z,19.5
2022-12-29T16:08:10.600Z,19.5
2022-12-29T16:13:12.707Z,19.4
2022-12-29T16:18:14.910Z,19.4
2022-12-29T16:23:17.288Z,19.3
2022-12-29T16:28:19.416Z,19.3
2022-12-29T16:33:22.196Z,19.3
2022-12-29T16:38:24.434Z,19.3
2022-12-29T16:43:26.549Z,19.4
2022-12-29T16:48:28.685Z,19.3
2022-12-29T16:53:30.851Z,19.3
2022-12-29T16:58:33.049Z,19.3
2022-12-29T17:03:35.227Z,19.1
2022-12-29T17:08:37.622Z,18.9
2022-12-29T17:13:39.761Z,18.8
2022-12-29T17:18:41.898Z,18.8
2022-12-29T17:23:44.066Z,18.8
2022-12-29T17:28:46.178Z,18.9
2022-12-29T17:33:48.329Z,19
2022-12-29T17:38:50.513Z,19
2022-12-29T17:43:52.756Z,19.1
2022-12-29T17:48:54.956Z,19.2
2022-12-29T17:53:57.250Z,19.3
2022-12-29T17:58:59.355Z,19.3
2022-12-29T18:04:01.516Z,19.3
2022-12-29T18:09:03.738Z,19.4
2022-12-29T18:14:05.848Z,19.4
2022-12-29T18:19:07.989Z,19.4
2022-12-29T18:24:10.151Z,19.4
2022-12-29T18:29:12.405Z,19.5
2022-12-29T18:34:14.556Z,19.5
2022-12-29T18:39:16.801Z,19.5
2022-12-29T18:44:19.091Z,19.5
2022-12-29T18:49:21.401Z,19.5
2022-12-29T18:54:23.771Z,19.5
2022-12-29T18:59:25.944Z,19.5
2022-12-29T19:04:28.206Z,19.5
2022-12-29T19:09:30.614Z,19.4
2022-12-29T19:14:32.750Z,19.4
2022-12-29T19:19:34.883Z,19.4
2022-12-29T19:24:37.172Z,19.3
2022-12-29T19:29:39.225Z,19.3
2022-12-29T19:34:41.356Z,19.3
2022-12-29T19:39:43.527Z,19.3
2022-12-29T19:44:45.803Z,19.2
2022-12-29T19:49:47.961Z,19.2
2022-12-29T19:54:50.298Z,19.2
2022-12-29T19:59:52.484Z,19.1
2022-12-29T20:04:54.847Z,19.1
2022-12-29T20:09:57.141Z,19
2022-12-29T20:14:59.284Z,19
2022-12-29T20:20:01.604Z,18.9
2022-12-29T20:25:34.950Z,18.9
2022-12-29T20:30:06.214Z,18.9
2022-12-29T20:35:08.518Z,18.8
2022-12-29T20:40:10.932Z,18.8
2022-12-29T20:45:13.067Z,18.8
2022-12-29T20:50:15.303Z,18.7
2022-12-29T20:55:17.568Z,18.7
2022-12-29T21:00:22.505Z,18.7
2022-12-29T21:05:23.990Z,18.6
2022-12-29T21:10:24.620Z,18.6
2022-12-29T21:15:26.746Z,18.6
2022-12-29T21:20:28.987Z,18.6
2022-12-29T21:25:31.169Z,18.5
2022-12-29T21:30:33.450Z,18.5
2022-12-29T21:35:35.572Z,18.5
2022-12-29T21:40:37.755Z,18.5
2022-12-29T21:45:39.871Z,18.5
2022-12-29T21:50:42.316Z,18.4
2022-12-29T21:55:44.543Z,18.4
2022-12-29T22:00:46.899Z,18.3
2022-12-29T22:05:49.186Z,18.3
2022-12-29T22:10:51.609Z,18.2
2022-12-29T22:15:53.713Z,18.2
2022-12-29T22:20:56.044Z,18.2
2022-12-29T22:25:58.312Z,18.1
2022-12-29T22:31:00.644Z,18.1
2022-12-29T22:36:02.945Z,18.1
2022-12-29T22:41:05.305Z,18.1
2022-12-29T22:46:07.567Z,18.1
2022-12-29T22:51:09.820Z,18.1
2022-12-29T22:56:12.114Z,18
2022-12-29T23:01:14.281Z,18
2022-12-29T23:06:16.514Z,18
2022-12-29T23:11:18.715Z,18
2022-12-29T23:16:21.096Z,18
2022-12-29T23:21:23.365Z,17.9
2022-12-29T23:26:25.615Z,17.9
2022-12-29T23:31:27.908Z,17.9
2022-12-29T23:36:30.050Z,17.8
2022-12-29T23:41:32.234Z,17.8
2022-12-29T23:46:34.388Z,17.8
2022-12-29T23:51:36.568Z,17.8
2022-12-29T23:56:38.854Z,17.7
